createdAt,value
2023-08-11T00:01:12.506Z,100760.40
2023-08-11T00:03:45.913Z,100762.80
2023-08-11T00:06:19.413Z,100759.80
2023-08-11T00:08:52.456Z,100762.60
2023-08-11T00:11:25.932Z,100757.20
2023-08-11T00:13:59.008Z,100757.40
2023-08-11T00:16:32.088Z,100760.80
2023-08-11T00:19:05.252Z,100762.20
2023-08-11T00:21:38.476Z,100761.20
2023-08-11T00:24:12.620Z,100769.40
2023-08-11T00:26:45.785Z,100774.40
2023-08-11T00:29:18.863Z,100767.20
2023-08-11T00:31:51.924Z,100768.80
2023-08-11T00:34:25.843Z,100766.20
2023-08-11T00:37:00.341Z,100770.80
2023-08-11T00:39:33.433Z,100777.20
2023-08-11T00:42:08.022Z,100780.60
2023-08-11T00:44:41.148Z,100784.40
2023-08-11T00:47:14.338Z,100780.00
2023-08-11T00:49:47.684Z,100777.40
2023-08-11T00:52:21.644Z,100775.20
2023-08-11T00:54:58.300Z,100774.80
2023-08-11T00:57:31.422Z,100773.60
2023-08-11T01:00:13.474Z,100776.00
2023-08-11T01:02:48.305Z,100777.00
2023-08-11T01:05:22.985Z,100775.40
2023-08-11T01:08:11.869Z,100768.60
2023-08-11T01:10:54.884Z,100769.00
2023-08-11T01:13:31.686Z,100769.20
2023-08-11T01:16:06.909Z,100765.60
2023-08-11T01:18:40.694Z,100764.80
2023-08-11T01:21:18.959Z,100761.00
2023-08-11T01:23:52.187Z,100756.40
2023-08-11T01:26:25.517Z,100760.40
2023-08-11T01:28:59.762Z,100763.20
2023-08-11T01:31:33.340Z,100761.60
2023-08-11T01:34:06.718Z,100765.60
2023-08-11T01:36:40.313Z,100761.80
2023-08-11T01:39:14.701Z,100756.80
2023-08-11T01:41:48.046Z,100756.80
2023-08-11T01:44:21.404Z,100754.00
2023-08-11T01:46:56.840Z,100751.80
2023-08-11T01:49:31.628Z,100753.20
2023-08-11T01:52:04.968Z,100751.80
2023-08-11T01:54:38.829Z,100753.40
2023-08-11T01:57:12.203Z,100753.80
2023-08-11T01:59:45.588Z,100758.40
2023-08-11T02:02:19.495Z,100760.20
2023-08-11T02:04:52.584Z,100764.20
2023-08-11T02:07:25.932Z,100767.80
2023-08-11T02:09:58.965Z,100767.40
2023-08-11T02:12:32.428Z,100759.80
2023-08-11T02:15:09.025Z,100762.20
2023-08-11T02:17:42.239Z,100762.00
2023-08-11T02:20:23.159Z,100762.20
2023-08-11T02:22:57.477Z,100756.60
2023-08-11T02:25:30.580Z,100754.80
2023-08-11T02:28:05.340Z,100756.20
2023-08-11T02:30:39.030Z,100761.40
2023-08-11T02:33:12.181Z,100761.00
2023-08-11T02:35:45.285Z,100759.40
2023-08-11T02:38:18.402Z,100761.60
2023-08-11T02:40:51.581Z,100766.80
2023-08-11T02:43:24.699Z,100771.40
2023-08-11T02:45:57.725Z,100769.80
2023-08-11T02:48:30.793Z,100773.00
2023-08-11T02:51:04.426Z,100772.40
2023-08-11T02:53:37.641Z,100768.20
2023-08-11T02:56:13.110Z,100769.60
2023-08-11T02:58:46.211Z,100766.40
2023-08-11T03:01:19.307Z,100771.80
2023-08-11T03:03:54.092Z,100771.80
2023-08-11T03:06:27.407Z,100769.00
2023-08-11T03:09:00.727Z,100767.80
2023-08-11T03:11:33.791Z,100772.80
2023-08-11T03:14:07.205Z,100769.60
2023-08-11T03:16:40.466Z,100764.20
2023-08-11T03:19:15.182Z,100768.00
2023-08-11T03:21:48.713Z,100771.00
2023-08-11T03:24:22.002Z,100770.20
2023-08-11T03:26:55.408Z,100773.40
2023-08-11T03:29:29.206Z,100773.60
2023-08-11T03:32:02.292Z,100766.60
2023-08-11T03:34:35.425Z,100770.20
2023-08-11T03:37:08.734Z,100767.00
2023-08-11T03:39:42.933Z,100764.60
2023-08-11T03:42:16.222Z,100767.40
2023-08-11T03:44:49.826Z,100771.60
2023-08-11T03:47:22.803Z,100768.60
2023-08-11T03:49:56.448Z,100772.00
2023-08-11T03:52:29.700Z,100769.60
2023-08-11T03:55:03.393Z,100770.40
2023-08-11T03:57:37.291Z,100772.20
2023-08-11T04:00:16.216Z,100771.20
2023-08-11T04:02:52.521Z,100771.00
2023-08-11T04:05:26.033Z,100777.80
2023-08-11T04:07:59.547Z,100777.60
2023-08-11T04:10:36.083Z,100782.00
2023-08-11T04:13:09.342Z,100779.80
2023-08-11T04:15:42.423Z,100780.00
2023-08-11T04:18:15.623Z,100781.00
2023-08-11T04:20:48.975Z,100781.20
2023-08-11T04:23:22.472Z,100783.00
2023-08-11T04:25:56.260Z,100785.80
2023-08-11T04:28:29.592Z,100784.80
2023-08-11T04:31:03.201Z,100786.00
2023-08-11T04:33:36.937Z,100784.20
2023-08-11T04:36:11.468Z,100791.80
2023-08-11T04:38:45.537Z,100792.40
2023-08-11T04:41:18.712Z,100791.80
2023-08-11T04:43:52.147Z,100796.20
2023-08-11T04:46:26.414Z,100799.00
2023-08-11T04:48:59.699Z,100797.00
2023-08-11T04:51:33.463Z,100798.60
2023-08-11T04:54:08.591Z,100802.20
2023-08-11T04:56:41.785Z,100804.00
2023-08-11T04:59:14.832Z,100800.80
2023-08-11T05:01:47.946Z,100803.00
2023-08-11T05:04:21.170Z,100800.00
2023-08-11T05:06:54.200Z,100798.80
2023-08-11T05:09:27.197Z,100797.60
2023-08-11T05:12:00.437Z,100797.80
2023-08-11T05:14:33.558Z,100795.20
2023-08-11T05:17:07.626Z,100800.40
2023-08-11T05:19:41.162Z,100799.00
2023-08-11T05:22:14.229Z,100803.40
2023-08-11T05:24:47.184Z,100802.60
2023-08-11T05:27:20.290Z,100799.20
2023-08-11T05:29:53.378Z,100802.20
2023-08-11T05:32:27.617Z,100800.20
2023-08-11T05:35:00.785Z,100806.60
2023-08-11T05:37:34.591Z,100804.20
2023-08-11T05:40:10.042Z,100811.60
2023-08-11T05:42:43.420Z,100813.20
2023-08-11T05:45:18.358Z,100817.80
2023-08-11T05:47:51.792Z,100810.40
2023-08-11T05:50:25.206Z,100813.60
2023-08-11T05:52:58.633Z,100810.00
2023-08-11T05:55:31.862Z,100804.60
2023-08-11T05:58:05.186Z,100803.00
2023-08-11T06:00:38.721Z,100803.00
2023-08-11T06:03:11.767Z,100806.80
2023-08-11T06:05:44.815Z,100804.00
2023-08-11T06:08:17.878Z,100800.00
2023-08-11T06:10:50.893Z,100802.80
2023-08-11T06:13:24.123Z,100803.60
2023-08-11T06:15:57.150Z,100802.40
2023-08-11T06:18:30.915Z,100807.40
2023-08-11T06:21:05.666Z,100810.00
2023-08-11T06:23:39.080Z,100805.60
2023-08-11T06:26:12.494Z,100803.60
2023-08-11T06:28:46.399Z,100807.00
2023-08-11T06:31:21.758Z,100806.00
2023-08-11T06:33:54.832Z,100809.00
2023-08-11T06:36:27.887Z,100813.40
2023-08-11T06:39:00.957Z,100807.40
2023-08-11T06:41:33.987Z,100821.60
2023-08-11T06:44:07.856Z,100821.80
2023-08-11T06:46:40.866Z,100824.80
2023-08-11T06:49:14.000Z,100823.60
2023-08-11T06:51:46.967Z,100822.80
2023-08-11T06:54:20.002Z,100828.00
2023-08-11T06:56:53.174Z,100826.80
2023-08-11T06:59:26.661Z,100822.40
2023-08-11T07:01:59.864Z,100831.40
2023-08-11T07:04:32.928Z,100828.60
2023-08-11T07:07:06.051Z,100826.60
2023-08-11T07:09:39.257Z,100827.60
2023-08-11T07:12:13.221Z,100828.60
2023-08-11T07:14:46.238Z,100826.80
2023-08-11T07:17:19.285Z,100835.00
2023-08-11T07:19:52.294Z,100833.40
2023-08-11T07:22:25.409Z,100839.60
2023-08-11T07:24:58.505Z,100830.40
2023-08-11T07:27:31.410Z,100836.40
2023-08-11T07:30:04.667Z,100825.80
2023-08-11T07:32:37.708Z,100829.40
2023-08-11T07:35:12.168Z,100827.40
2023-08-11T07:37:45.417Z,100830.40
2023-08-11T07:40:18.836Z,100839.00
2023-08-11T07:42:51.872Z,100848.40
2023-08-11T07:45:24.991Z,100846.20
2023-08-11T07:47:58.070Z,100856.20
2023-08-11T07:50:31.200Z,100851.40
2023-08-11T07:53:04.972Z,100849.80
2023-08-11T07:55:38.259Z,100856.60
2023-08-11T07:58:11.579Z,100855.40
2023-08-11T08:00:44.819Z,100852.40
2023-08-11T08:03:18.875Z,100855.80
2023-08-11T08:05:52.165Z,100857.40
2023-08-11T08:08:25.521Z,100856.80
2023-08-11T08:10:58.589Z,100851.60
2023-08-11T08:13:32.720Z,100853.40
2023-08-11T08:16:05.950Z,100854.20
2023-08-11T08:18:39.047Z,100856.20
2023-08-11T08:21:13.268Z,100855.00
2023-08-11T08:23:46.632Z,100850.40
2023-08-11T08:26:19.896Z,100860.20
2023-08-11T08:28:53.038Z,100857.80
2023-08-11T08:31:26.048Z,100858.00
2023-08-11T08:33:59.441Z,100855.40
2023-08-11T08:36:32.371Z,100857.40
2023-08-11T08:39:08.248Z,100855.80
2023-08-11T08:41:45.778Z,100853.20
2023-08-11T08:44:19.101Z,100857.80
2023-08-11T08:46:55.773Z,100854.20
2023-08-11T08:49:31.103Z,100858.20
2023-08-11T08:52:05.925Z,100863.00
2023-08-11T08:54:43.197Z,100859.80
2023-08-11T08:57:17.703Z,100859.80
2023-08-11T08:59:51.214Z,100863.20
2023-08-11T09:02:29.509Z,100862.80
2023-08-11T09:05:02.754Z,100865.80
2023-08-11T09:07:35.943Z,100863.40
2023-08-11T09:10:10.762Z,100858.60
2023-08-11T09:12:46.277Z,100857.20
2023-08-11T09:15:20.390Z,100852.60
2023-08-11T09:17:54.647Z,100859.80
2023-08-11T09:20:30.713Z,100853.00
2023-08-11T09:23:03.755Z,100853.40
2023-08-11T09:25:36.863Z,100857.20
2023-08-11T09:28:10.756Z,100853.80
2023-08-11T09:30:44.396Z,100854.00
2023-08-11T09:33:17.457Z,100852.80
2023-08-11T09:35:51.077Z,100854.80
2023-08-11T09:38:26.990Z,100856.40
2023-08-11T09:41:05.582Z,100856.00
2023-08-11T09:43:39.032Z,100864.00
2023-08-11T09:46:18.759Z,100864.20
2023-08-11T09:48:58.834Z,100868.40
2023-08-11T09:51:33.918Z,100872.00
2023-08-11T09:54:10.383Z,100873.60
2023-08-11T09:56:45.811Z,100873.60
2023-08-11T09:59:22.905Z,100873.60
2023-08-11T10:01:58.704Z,100876.20
2023-08-11T10:04:40.503Z,100873.40
2023-08-11T10:07:18.992Z,100868.20
2023-08-11T10:09:53.280Z,100872.20
2023-08-11T10:12:27.237Z,100868.60
2023-08-11T10:15:00.860Z,100867.20
2023-08-11T10:17:34.112Z,100872.40
2023-08-11T10:20:08.891Z,100868.60
2023-08-11T10:22:42.520Z,100872.40
2023-08-11T10:25:15.892Z,100873.60
2023-08-11T10:27:49.572Z,100874.00
2023-08-11T10:30:22.847Z,100870.80
2023-08-11T10:33:06.801Z,100874.20
2023-08-11T10:35:54.898Z,100873.00
2023-08-11T10:38:36.423Z,100873.40
2023-08-11T10:41:13.421Z,100872.60
2023-08-11T10:43:51.616Z,100867.60
2023-08-11T10:46:27.586Z,100869.60
2023-08-11T10:49:21.218Z,100870.40
2023-08-11T10:51:56.899Z,100864.80
2023-08-11T10:54:30.721Z,100870.00
2023-08-11T10:57:05.686Z,100863.00
2023-08-11T10:59:39.661Z,100865.40
2023-08-11T11:02:14.181Z,100871.80
2023-08-11T11:04:47.502Z,100871.60
2023-08-11T11:07:23.359Z,100871.00
2023-08-11T11:09:57.518Z,100864.20
2023-08-11T11:12:30.680Z,100864.80
2023-08-11T11:15:04.177Z,100865.60
2023-08-11T11:17:37.479Z,100866.00
2023-08-11T11:20:15.268Z,100866.80
2023-08-11T11:22:53.531Z,100863.00
2023-08-11T11:25:26.909Z,100874.40
2023-08-11T11:28:00.277Z,100879.40
2023-08-11T11:30:33.623Z,100873.20
2023-08-11T11:33:07.092Z,100868.40
2023-08-11T11:35:40.124Z,100876.00
2023-08-11T11:38:14.010Z,100880.60
2023-08-11T11:40:47.312Z,100879.20
2023-08-11T11:43:20.855Z,100873.60
2023-08-11T11:45:54.935Z,100877.80
2023-08-11T11:48:28.335Z,100881.60
2023-08-11T11:51:04.248Z,100879.60
2023-08-11T11:53:39.761Z,100869.20
2023-08-11T11:56:16.885Z,100876.00
2023-08-11T11:58:51.197Z,100878.00
2023-08-11T12:01:28.096Z,100871.60
2023-08-11T12:04:01.737Z,100876.40
2023-08-11T12:06:36.120Z,100868.60
2023-08-11T12:09:11.399Z,100872.00
2023-08-11T12:11:45.200Z,100884.80
2023-08-11T12:14:18.441Z,100886.80
2023-08-11T12:16:51.664Z,100878.40
2023-08-11T12:19:26.920Z,100876.60
2023-08-11T12:22:00.036Z,100885.60
2023-08-11T12:24:33.337Z,100887.20
2023-08-11T12:27:06.672Z,100894.20
2023-08-11T12:29:39.884Z,100886.60
2023-08-11T12:32:13.008Z,100891.20
2023-08-11T12:34:45.927Z,100886.80
2023-08-11T12:37:18.978Z,100888.40
2023-08-11T12:39:51.949Z,100893.60
2023-08-11T12:42:25.096Z,100885.80
2023-08-11T12:44:58.177Z,100899.20
2023-08-11T12:47:31.371Z,100895.60
2023-08-11T12:50:04.658Z,100898.60
2023-08-11T12:52:37.784Z,100903.60
2023-08-11T12:55:12.002Z,100901.00
2023-08-11T12:57:45.161Z,100902.60
2023-08-11T13:00:20.990Z,100893.20
2023-08-11T13:02:54.334Z,100893.60
2023-08-11T13:05:27.772Z,100901.40
2023-08-11T13:08:01.419Z,100902.60
2023-08-11T13:10:34.456Z,100902.40
2023-08-11T13:13:07.800Z,100898.00
2023-08-11T13:15:40.905Z,100901.40
2023-08-11T13:18:14.058Z,100904.00
2023-08-11T13:20:47.294Z,100891.80
2023-08-11T13:23:20.326Z,100895.40
2023-08-11T13:25:53.376Z,100894.20
2023-08-11T13:28:26.388Z,100893.40
2023-08-11T13:30:59.406Z,100892.80
2023-08-11T13:33:32.354Z,100889.60
2023-08-11T13:36:06.295Z,100881.00
2023-08-11T13:38:39.604Z,100884.40
2023-08-11T13:41:12.926Z,100885.40
2023-08-11T13:43:46.064Z,100887.60
2023-08-11T13:46:19.125Z,100887.40
2023-08-11T13:48:52.306Z,100891.00
2023-08-11T13:51:25.324Z,100889.40
2023-08-11T13:53:58.405Z,100891.40
2023-08-11T13:56:31.657Z,100896.60
2023-08-11T13:59:05.182Z,100886.40
2023-08-11T14:01:38.126Z,100889.60
2023-08-11T14:04:11.616Z,100887.40
2023-08-11T14:06:44.944Z,100882.40
2023-08-11T14:09:17.997Z,100885.00
2023-08-11T14:11:51.297Z,100885.80
2023-08-11T14:14:24.838Z,100883.20
2023-08-11T14:16:57.975Z,100881.00
2023-08-11T14:19:31.222Z,100877.00
2023-08-11T14:22:04.576Z,100875.00
2023-08-11T14:24:37.811Z,100872.00
2023-08-11T14:27:11.074Z,100879.20
2023-08-11T14:29:44.196Z,100872.60
2023-08-11T14:32:25.785Z,100872.80
2023-08-11T14:34:59.795Z,100877.00
2023-08-11T14:37:32.956Z,100870.40
2023-08-11T14:40:07.353Z,100865.00
2023-08-11T14:42:40.508Z,100866.80
2023-08-11T14:45:14.958Z,100870.20
2023-08-11T14:47:48.672Z,100871.80
2023-08-11T14:50:22.222Z,100869.20
2023-08-11T14:52:55.583Z,100869.80
2023-08-11T14:55:30.782Z,100871.40
2023-08-11T14:58:05.292Z,100866.60
2023-08-11T15:00:38.521Z,100868.20
2023-08-11T15:03:11.796Z,100863.20
2023-08-11T15:05:45.547Z,100866.20
2023-08-11T15:08:18.682Z,100866.20
2023-08-11T15:10:51.793Z,100862.80
2023-08-11T15:13:24.899Z,100866.60
2023-08-11T15:15:58.355Z,100866.00
2023-08-11T15:18:32.066Z,100859.80
2023-08-11T15:21:05.304Z,100863.60
2023-08-11T15:23:38.392Z,100862.20
2023-08-11T15:26:12.157Z,100859.20
2023-08-11T15:28:45.173Z,100857.40
2023-08-11T15:31:18.364Z,100855.20
2023-08-11T15:33:51.511Z,100857.40
2023-08-11T15:36:24.890Z,100857.00
2023-08-11T15:38:58.090Z,100857.20
2023-08-11T15:41:31.227Z,100861.00
2023-08-11T15:44:04.469Z,100861.00
2023-08-11T15:46:37.576Z,100862.20
2023-08-11T15:49:10.717Z,100870.80
2023-08-11T15:51:43.826Z,100866.20
2023-08-11T15:54:16.831Z,100873.60
2023-08-11T15:56:50.846Z,100872.00
2023-08-11T15:59:23.826Z,100872.00
2023-08-11T16:02:09.173Z,100867.20
2023-08-11T16:04:43.983Z,100864.40
2023-08-11T16:07:17.162Z,100866.20
2023-08-11T16:09:50.556Z,100860.20
2023-08-11T16:12:24.623Z,100865.40
2023-08-11T16:14:57.984Z,100862.40
2023-08-11T16:17:31.034Z,100861.20
2023-08-11T16:20:04.174Z,100861.40
2023-08-11T16:22:37.189Z,100857.40
2023-08-11T16:25:11.500Z,100848.60
2023-08-11T16:27:44.503Z,100849.80
2023-08-11T16:30:18.613Z,100854.80
2023-08-11T16:32:52.022Z,100853.20
2023-08-11T16:35:25.418Z,100855.40
2023-08-11T16:37:58.539Z,100863.40
2023-08-11T16:40:32.565Z,100863.60
2023-08-11T16:43:05.995Z,100860.20
2023-08-11T16:45:39.178Z,100859.40
2023-08-11T16:48:13.880Z,100857.80
2023-08-11T16:50:47.183Z,100857.80
2023-08-11T16:53:20.197Z,100853.80
2023-08-11T16:55:53.424Z,100860.80
2023-08-11T16:58:26.636Z,100857.20
2023-08-11T17:01:00.032Z,100858.60
2023-08-11T17:03:33.207Z,100857.80
2023-08-11T17:06:06.488Z,100857.40
2023-08-11T17:08:39.600Z,100856.00
2023-08-11T17:11:12.755Z,100854.20
2023-08-11T17:13:48.549Z,100849.40
2023-08-11T17:16:22.333Z,100853.80
2023-08-11T17:18:55.763Z,100849.60
2023-08-11T17:21:28.903Z,100854.00
2023-08-11T17:24:02.014Z,100853.00
2023-08-11T17:26:34.951Z,100853.00
2023-08-11T17:29:08.572Z,100851.40
2023-08-11T17:31:41.623Z,100850.80
2023-08-11T17:34:14.750Z,100850.60
2023-08-11T17:36:47.853Z,100853.60
2023-08-11T17:39:21.617Z,100853.60
2023-08-11T17:42:04.382Z,100849.40
2023-08-11T17:44:37.561Z,100854.20
2023-08-11T17:47:11.003Z,100853.60
2023-08-11T17:49:44.437Z,100851.60
2023-08-11T17:52:17.484Z,100853.60
2023-08-11T17:54:50.665Z,100853.60
2023-08-11T17:57:24.982Z,100855.00
2023-08-11T17:59:58.379Z,100855.80
2023-08-11T18:02:31.447Z,100858.80
2023-08-11T18:05:05.383Z,100860.00
2023-08-11T18:07:38.428Z,100854.60
2023-08-11T18:10:13.588Z,100855.60
2023-08-11T18:12:47.219Z,100852.20
2023-08-11T18:15:20.329Z,100861.20
2023-08-11T18:17:54.728Z,100857.60
2023-08-11T18:20:28.078Z,100866.00
2023-08-11T18:23:01.025Z,100856.00
2023-08-11T18:25:36.405Z,100868.00
2023-08-11T18:28:09.903Z,100866.80
2023-08-11T18:30:43.049Z,100872.80
2023-08-11T18:33:16.185Z,100877.80
2023-08-11T18:35:49.342Z,100879.80
2023-08-11T18:38:23.892Z,100882.40
2023-08-11T18:40:57.030Z,100888.20
2023-08-11T18:43:30.096Z,100884.80
2023-08-11T18:46:06.211Z,100890.20
2023-08-11T18:48:39.297Z,100892.40
2023-08-11T18:51:12.374Z,100897.20
2023-08-11T18:53:45.488Z,100898.60
2023-08-11T18:56:18.805Z,100895.40
2023-08-11T18:58:52.178Z,100897.80
2023-08-11T19:01:25.674Z,100899.60
2023-08-11T19:03:59.115Z,100901.60
2023-08-11T19:06:33.233Z,100901.00
2023-08-11T19:09:08.660Z,100901.40
2023-08-11T19:11:41.828Z,100906.60
2023-08-11T19:14:14.990Z,100905.40
2023-08-11T19:16:48.026Z,100902.80
2023-08-11T19:19:21.114Z,100903.40
2023-08-11T19:21:55.768Z,100905.20
2023-08-11T19:24:30.885Z,100906.60
2023-08-11T19:27:04.794Z,100907.40
2023-08-11T19:29:37.808Z,100907.40
2023-08-11T19:32:13.363Z,100914.80
2023-08-11T19:34:46.724Z,100915.00
2023-08-11T19:37:19.964Z,100915.80
2023-08-11T19:39:53.036Z,100912.80
2023-08-11T19:42:26.066Z,100914.20
2023-08-11T19:44:59.358Z,100913.60
2023-08-11T19:47:32.493Z,100909.80
2023-08-11T19:50:05.789Z,100913.00
2023-08-11T19:52:39.288Z,100911.80
2023-08-11T19:55:14.808Z,100914.20
2023-08-11T19:57:48.964Z,100914.60
2023-08-11T20:00:22.760Z,100916.20
2023-08-11T20:02:56.891Z,100915.00
2023-08-11T20:05:30.068Z,100913.00
2023-08-11T20:08:03.303Z,100908.80
2023-08-11T20:10:36.520Z,100906.80
2023-08-11T20:13:10.149Z,100903.00
2023-08-11T20:15:43.640Z,100907.20
2023-08-11T20:18:18.053Z,100907.40
2023-08-11T20:20:51.363Z,100897.40
2023-08-11T20:23:24.600Z,100894.60
2023-08-11T20:25:57.955Z,100892.00
2023-08-11T20:28:31.126Z,100896.20
2023-08-11T20:31:06.628Z,100893.40
2023-08-11T20:33:39.544Z,100888.40
2023-08-11T20:36:12.849Z,100885.80
2023-08-11T20:38:46.371Z,100881.60
2023-08-11T20:41:19.470Z,100875.60
2023-08-11T20:43:52.552Z,100874.80
2023-08-11T20:46:25.884Z,100883.20
2023-08-11T20:48:58.844Z,100876.00
2023-08-11T20:51:31.819Z,100872.80
2023-08-11T20:54:05.120Z,100875.20
2023-08-11T20:56:40.864Z,100877.20
2023-08-11T20:59:13.815Z,100880.40
2023-08-11T21:01:47.159Z,100880.00
2023-08-11T21:04:20.319Z,100879.20
2023-08-11T21:06:53.489Z,100880.40
2023-08-11T21:09:26.824Z,100878.60
2023-08-11T21:12:02.191Z,100882.00
2023-08-11T21:14:35.278Z,100882.00
2023-08-11T21:17:09.420Z,100884.40
2023-08-11T21:19:42.820Z,100884.80
2023-08-11T21:22:15.853Z,100889.40
2023-08-11T21:24:49.100Z,100886.60
2023-08-11T21:27:22.324Z,100887.40
2023-08-11T21:29:55.537Z,100884.00
2023-08-11T21:32:28.648Z,100885.80
2023-08-11T21:35:01.754Z,100883.40
2023-08-11T21:37:34.695Z,100885.60
2023-08-11T21:40:09.730Z,100883.00
2023-08-11T21:42:42.786Z,100884.80
2023-08-11T21:45:16.425Z,100884.80
2023-08-11T21:47:49.504Z,100884.60
2023-08-11T21:50:22.896Z,100885.80
2023-08-11T21:52:57.086Z,100882.40
2023-08-11T21:55:31.448Z,100884.20
2023-08-11T21:58:04.402Z,100878.40
2023-08-11T22:00:42.517Z,100879.00
2023-08-11T22:03:15.724Z,100875.80
2023-08-11T22:05:48.881Z,100876.20
2023-08-11T22:08:22.335Z,100872.40
2023-08-11T22:10:55.455Z,100868.60
2023-08-11T22:13:28.699Z,100862.80
2023-08-11T22:16:01.797Z,100866.40
2023-08-11T22:18:34.892Z,100866.00
2023-08-11T22:21:08.598Z,100860.40
2023-08-11T22:23:41.646Z,100858.00
2023-08-11T22:26:14.614Z,100863.20
2023-08-11T22:28:47.701Z,100856.40
2023-08-11T22:31:20.812Z,100865.40
2023-08-11T22:33:53.965Z,100873.00
2023-08-11T22:36:26.954Z,100871.20
2023-08-11T22:38:59.931Z,100878.00
2023-08-11T22:41:32.989Z,100882.00
2023-08-11T22:44:06.146Z,100882.00
2023-08-11T22:46:39.083Z,100879.80
2023-08-11T22:49:12.123Z,100872.60
2023-08-11T22:51:45.388Z,100871.40
2023-08-11T22:54:18.360Z,100872.20
2023-08-11T22:56:51.430Z,100871.40
2023-08-11T22:59:25.583Z,100874.00
2023-08-11T23:01:58.666Z,100873.20
2023-08-11T23:04:31.783Z,100875.20
2023-08-11T23:07:04.792Z,100873.60
2023-08-11T23:09:37.799Z,100872.80
2023-08-11T23:12:11.864Z,100874.80
2023-08-11T23:14:44.861Z,100875.20
2023-08-11T23:17:18.174Z,100877.20
2023-08-11T23:19:51.101Z,100884.80
2023-08-11T23:22:26.547Z,100882.00
2023-08-11T23:24:59.789Z,100879.60
2023-08-11T23:27:33.461Z,100877.40
2023-08-11T23:30:07.531Z,100875.80
2023-08-11T23:32:40.594Z,100872.40
2023-08-11T23:35:14.328Z,100879.60
2023-08-11T23:37:47.205Z,100879.80
2023-08-11T23:40:22.826Z,100883.20
2023-08-11T23:42:55.870Z,100887.80
2023-08-11T23:45:29.051Z,100884.60
2023-08-11T23:48:02.082Z,100885.00
2023-08-11T23:50:35.244Z,100880.40
2023-08-11T23:53:08.431Z,100884.40
2023-08-11T23:55:41.473Z,100888.00
2023-08-11T23:58:14.386Z,100881.80
